createdAt,value
2019-03-10T00:01:34.100Z,5.43
2019-03-10T00:04:04.634Z,5.34
2019-03-10T00:06:35.053Z,5.28
2019-03-10T00:09:06.623Z,5.24
2019-03-10T00:11:37.013Z,5.11
2019-03-10T00:14:07.668Z,5.14
2019-03-10T00:16:38.193Z,5.08
2019-03-10T00:19:08.613Z,5.01
2019-03-10T00:21:39.146Z,5.03
2019-03-10T00:24:10.107Z,5.04
2019-03-10T00:26:40.561Z,4.97
2019-03-10T00:29:11.055Z,4.97
2019-03-10T00:31:41.538Z,4.81
2019-03-10T00:34:12.121Z,4.90
2019-03-10T00:36:42.729Z,4.94
2019-03-10T00:39:47.936Z,5.03
2019-03-10T00:43:15.884Z,5.02
2019-03-10T00:46:42.103Z,5.13
2019-03-10T00:50:02.054Z,4.99
2019-03-10T00:52:39.546Z,4.89
2019-03-10T00:55:10.123Z,4.77
2019-03-10T00:57:40.571Z,4.77
2019-03-10T01:00:17.589Z,4.73
2019-03-10T01:02:48.060Z,4.71
2019-03-10T01:05:19.119Z,4.70
2019-03-10T01:07:49.723Z,4.67
2019-03-10T01:10:20.289Z,4.57
2019-03-10T01:12:50.825Z,4.56
2019-03-10T01:15:21.397Z,4.61
2019-03-10T01:17:53.199Z,4.57
2019-03-10T01:20:23.748Z,4.45
2019-03-10T01:22:54.319Z,4.38
2019-03-10T01:25:25.396Z,4.36
2019-03-10T01:27:55.999Z,4.35
2019-03-10T01:30:26.623Z,4.36
2019-03-10T01:33:47.793Z,4.27
2019-03-10T01:36:16.210Z,4.17
2019-03-10T01:38:46.883Z,4.20
2019-03-10T01:41:17.412Z,4.08
2019-03-10T01:43:47.792Z,4.10
2019-03-10T01:46:18.223Z,4.10
2019-03-10T01:48:48.740Z,4.10
2019-03-10T01:51:19.303Z,4.09
2019-03-10T01:53:49.977Z,4.04
2019-03-10T01:56:20.477Z,3.93
2019-03-10T01:58:51.211Z,3.85
2019-03-10T02:01:21.646Z,3.89
2019-03-10T02:03:52.047Z,3.76
2019-03-10T02:06:22.499Z,3.69
2019-03-10T02:08:52.847Z,3.74
2019-03-10T02:11:23.413Z,3.76
2019-03-10T02:13:53.843Z,3.72
2019-03-10T02:16:24.313Z,3.65
2019-03-10T02:18:54.843Z,3.59
2019-03-10T02:21:25.388Z,3.52
2019-03-10T02:23:55.772Z,3.49
2019-03-10T02:26:26.128Z,3.47
2019-03-10T02:28:56.633Z,3.48
2019-03-10T02:31:27.014Z,3.42
2019-03-10T02:33:57.489Z,3.34
2019-03-10T02:36:28.005Z,3.29
2019-03-10T02:38:58.400Z,3.25
2019-03-10T02:41:28.888Z,3.20
2019-03-10T02:43:59.338Z,3.13
2019-03-10T02:46:29.657Z,3.13
2019-03-10T02:49:00.234Z,3.02
2019-03-10T02:51:30.743Z,3.17
2019-03-10T02:54:01.346Z,3.14
2019-03-10T02:56:31.748Z,3.13
2019-03-10T02:59:02.173Z,3.13
2019-03-10T03:01:32.685Z,3.17
2019-03-10T03:04:03.119Z,3.09
2019-03-10T03:06:33.523Z,3.05
2019-03-10T03:09:04.374Z,3.03
2019-03-10T03:11:34.801Z,3.06
2019-03-10T03:14:05.271Z,3.09
2019-03-10T03:16:35.858Z,3.10
2019-03-10T03:19:06.374Z,3.02
2019-03-10T03:21:43.205Z,2.94
2019-03-10T03:24:08.956Z,2.95
2019-03-10T03:26:39.311Z,2.95
2019-03-10T03:29:09.893Z,2.88
2019-03-10T03:31:59.444Z,2.83
2019-03-10T03:34:29.864Z,2.82
2019-03-10T03:37:00.497Z,2.87
2019-03-10T03:39:44.905Z,2.80
2019-03-10T03:42:15.456Z,2.78
2019-03-10T03:44:45.834Z,2.78
2019-03-10T03:47:16.416Z,2.73
2019-03-10T03:49:47.064Z,2.75
2019-03-10T03:52:17.584Z,2.77
2019-03-10T03:54:48.024Z,2.75
2019-03-10T03:57:18.497Z,2.76
2019-03-10T03:59:48.969Z,2.72
2019-03-10T04:02:38.307Z,2.80
2019-03-10T04:05:09.837Z,2.81
2019-03-10T04:07:40.656Z,2.81
2019-03-10T04:10:11.224Z,2.74
2019-03-10T04:12:41.827Z,2.69
2019-03-10T04:15:12.409Z,2.67
2019-03-10T04:17:42.828Z,2.67
2019-03-10T04:20:13.705Z,2.62
2019-03-10T04:22:44.087Z,2.61
2019-03-10T04:25:15.268Z,2.61
2019-03-10T04:27:46.195Z,2.62
2019-03-10T04:30:16.640Z,2.62
2019-03-10T04:32:47.007Z,2.67
2019-03-10T04:35:17.494Z,2.60
2019-03-10T04:37:48.012Z,2.54
2019-03-10T04:40:18.578Z,2.51
2019-03-10T04:42:48.927Z,2.48
2019-03-10T04:45:19.473Z,2.48
2019-03-10T04:47:49.933Z,2.47
2019-03-10T04:50:20.330Z,2.42
2019-03-10T04:52:50.853Z,2.37
2019-03-10T04:55:40.264Z,2.35
2019-03-10T04:58:13.108Z,2.38
2019-03-10T05:00:45.828Z,2.45
2019-03-10T05:03:16.324Z,2.45
2019-03-10T05:05:47.433Z,2.45
2019-03-10T05:08:17.937Z,2.43
2019-03-10T05:10:48.427Z,2.44
2019-03-10T05:13:19.002Z,2.46
2019-03-10T05:15:49.523Z,2.49
2019-03-10T05:18:19.933Z,2.58
2019-03-10T05:20:50.853Z,2.64
2019-03-10T05:23:43.978Z,2.66
2019-03-10T05:26:16.343Z,2.67
2019-03-10T05:28:50.392Z,2.68
2019-03-10T05:31:21.143Z,2.72
2019-03-10T05:33:51.717Z,2.80
2019-03-10T05:36:22.233Z,2.84
2019-03-10T05:38:52.719Z,2.89
2019-03-10T05:41:24.563Z,2.99
2019-03-10T05:43:55.063Z,3.06
2019-03-10T05:46:25.747Z,3.16
2019-03-10T05:48:56.343Z,3.21
2019-03-10T05:51:26.842Z,3.30
2019-03-10T05:53:57.282Z,3.45
2019-03-10T05:56:27.896Z,3.57
2019-03-10T05:58:58.338Z,3.67
2019-03-10T06:01:28.973Z,3.85
2019-03-10T06:03:59.452Z,4.02
2019-03-10T06:06:29.985Z,4.21
2019-03-10T06:09:00.462Z,4.24
2019-03-10T06:11:30.834Z,4.27
2019-03-10T06:14:01.283Z,4.21
2019-03-10T06:16:31.903Z,4.13
2019-03-10T06:19:02.333Z,4.17
2019-03-10T06:21:32.764Z,4.21
2019-03-10T06:24:03.208Z,4.33
2019-03-10T06:26:33.932Z,4.41
2019-03-10T06:29:04.471Z,4.51
2019-03-10T06:31:35.037Z,4.54
2019-03-10T06:34:05.629Z,4.54
2019-03-10T06:36:36.223Z,4.58
2019-03-10T06:39:07.805Z,4.65
2019-03-10T06:41:38.416Z,4.70
2019-03-10T06:44:09.014Z,4.75
2019-03-10T06:46:39.513Z,4.85
2019-03-10T06:49:10.023Z,4.96
2019-03-10T06:51:41.054Z,5.08
2019-03-10T06:54:11.526Z,5.21
2019-03-10T06:56:42.027Z,5.30
2019-03-10T06:59:12.629Z,5.39
2019-03-10T07:01:44.173Z,5.43
2019-03-10T07:04:14.804Z,5.54
2019-03-10T07:06:45.281Z,5.68
2019-03-10T07:09:15.765Z,6.07
2019-03-10T07:11:46.314Z,6.54
2019-03-10T07:14:16.977Z,7.17
2019-03-10T07:16:47.433Z,7.92
2019-03-10T07:19:17.816Z,8.06
2019-03-10T07:21:48.192Z,8.50
2019-03-10T07:24:18.762Z,8.28
2019-03-10T07:26:49.143Z,8.68
2019-03-10T07:29:38.475Z,8.83
2019-03-10T07:32:17.837Z,9.06
2019-03-10T07:35:07.233Z,10.11
2019-03-10T07:37:48.018Z,11.11
2019-03-10T07:40:37.403Z,10.44
2019-03-10T07:43:19.909Z,9.75
2019-03-10T07:46:06.333Z,9.16
2019-03-10T07:48:55.677Z,8.60
2019-03-10T07:51:39.742Z,8.73
2019-03-10T07:54:29.008Z,8.66
2019-03-10T07:57:18.472Z,8.53
2019-03-10T08:00:07.693Z,8.56
2019-03-10T08:02:45.429Z,9.02
2019-03-10T08:05:29.242Z,9.22
2019-03-10T08:08:07.715Z,9.20
2019-03-10T08:10:57.014Z,9.02
2019-03-10T08:13:46.408Z,9.11
2019-03-10T08:16:35.843Z,9.02
2019-03-10T08:19:21.875Z,9.16
2019-03-10T08:22:12.083Z,9.09
2019-03-10T08:25:01.364Z,8.83
2019-03-10T08:28:00.939Z,8.65
2019-03-10T08:30:41.823Z,9.10
2019-03-10T08:33:28.678Z,9.23
2019-03-10T08:36:07.345Z,9.19
2019-03-10T08:38:55.517Z,9.08
2019-03-10T08:41:35.615Z,9.38
2019-03-10T08:44:21.072Z,9.46
2019-03-10T08:46:59.653Z,9.44
2019-03-10T08:49:47.144Z,9.51
2019-03-10T08:52:32.673Z,9.77
2019-03-10T08:55:18.014Z,9.52
2019-03-10T08:58:09.067Z,9.58
2019-03-10T09:00:52.473Z,9.39
2019-03-10T09:03:42.133Z,9.96
2019-03-10T09:06:31.768Z,11.07
2019-03-10T09:09:10.557Z,11.28
2019-03-10T09:11:59.950Z,11.79
2019-03-10T09:14:37.709Z,12.41
2019-03-10T09:17:27.611Z,13.57
2019-03-10T09:20:17.064Z,13.56
2019-03-10T09:23:06.773Z,13.18
2019-03-10T09:25:56.206Z,13.33
2019-03-10T09:28:41.394Z,13.67
2019-03-10T09:31:19.788Z,13.69
2019-03-10T09:34:09.195Z,13.04
2019-03-10T09:36:59.276Z,12.27
2019-03-10T09:39:38.932Z,11.60
2019-03-10T09:42:28.411Z,11.11
2019-03-10T09:45:17.843Z,10.99
2019-03-10T09:48:07.169Z,10.64
2019-03-10T09:50:56.467Z,10.48
2019-03-10T09:53:45.922Z,10.60
2019-03-10T09:56:35.344Z,10.45
2019-03-10T09:59:22.297Z,10.35
2019-03-10T10:02:04.396Z,10.90
2019-03-10T10:04:53.663Z,11.04
2019-03-10T10:07:35.943Z,11.05
2019-03-10T10:10:22.776Z,11.25
2019-03-10T10:13:12.113Z,11.30
2019-03-10T10:16:01.504Z,11.31
2019-03-10T10:18:46.283Z,11.13
2019-03-10T10:21:36.231Z,11.07
2019-03-10T10:24:25.639Z,10.79
2019-03-10T10:27:14.989Z,10.48
2019-03-10T10:30:04.327Z,10.38
2019-03-10T10:32:53.778Z,10.32
2019-03-10T10:35:43.382Z,10.35
2019-03-10T10:38:23.571Z,10.45
2019-03-10T10:41:07.767Z,10.81
2019-03-10T10:43:51.203Z,11.42
2019-03-10T10:46:40.654Z,11.47
2019-03-10T10:49:21.730Z,11.30
2019-03-10T10:52:08.556Z,11.11
2019-03-10T10:54:57.959Z,10.91
2019-03-10T10:57:37.031Z,10.66
2019-03-10T11:00:23.888Z,10.43
2019-03-10T11:03:13.827Z,10.10
2019-03-10T11:06:03.192Z,10.07
2019-03-10T11:08:48.069Z,9.98
2019-03-10T11:11:37.458Z,9.91
2019-03-10T11:14:26.945Z,9.81
2019-03-10T11:17:11.478Z,9.65
2019-03-10T11:19:50.253Z,9.59
2019-03-10T11:22:25.603Z,9.38
2019-03-10T11:25:14.175Z,9.46
2019-03-10T11:27:54.077Z,9.25
2019-03-10T11:30:41.258Z,9.26
2019-03-10T11:33:30.843Z,9.19
2019-03-10T11:36:12.433Z,9.03
2019-03-10T11:39:01.813Z,8.99
2019-03-10T11:41:45.104Z,8.71
2019-03-10T11:44:34.501Z,8.34
2019-03-10T11:47:13.119Z,8.26
2019-03-10T11:49:54.365Z,8.13
2019-03-10T11:52:44.848Z,8.18
2019-03-10T11:55:37.368Z,8.11
2019-03-10T11:58:26.823Z,8.17
2019-03-10T12:01:02.584Z,8.14
2019-03-10T12:03:46.804Z,8.06
2019-03-10T12:06:36.363Z,8.13
2019-03-10T12:09:15.803Z,7.91
2019-03-10T12:11:46.393Z,7.97
2019-03-10T12:14:17.074Z,7.74
2019-03-10T12:16:47.723Z,7.70
2019-03-10T12:19:18.292Z,7.71
2019-03-10T12:21:49.354Z,7.81
2019-03-10T12:24:21.012Z,7.92
2019-03-10T12:26:51.761Z,7.89
2019-03-10T12:29:22.408Z,8.07
2019-03-10T12:31:52.956Z,7.77
2019-03-10T12:34:23.658Z,7.66
2019-03-10T12:36:54.243Z,7.45
2019-03-10T12:39:25.672Z,7.11
2019-03-10T12:41:58.757Z,7.19
2019-03-10T12:44:30.712Z,7.18
2019-03-10T12:47:02.090Z,6.97
2019-03-10T12:49:32.720Z,7.08
2019-03-10T12:52:05.761Z,7.09
2019-03-10T12:54:39.960Z,7.14
2019-03-10T12:57:10.693Z,7.12
2019-03-10T12:59:41.968Z,7.20
2019-03-10T13:02:12.569Z,7.20
2019-03-10T13:04:45.487Z,7.12
2019-03-10T13:07:16.333Z,7.16
2019-03-10T13:09:47.506Z,7.21
2019-03-10T13:12:18.138Z,6.75
2019-03-10T13:14:59.039Z,6.82
2019-03-10T13:17:21.109Z,6.71
2019-03-10T13:19:51.786Z,6.56
2019-03-10T13:22:22.493Z,6.52
2019-03-10T13:24:53.060Z,6.63
2019-03-10T13:27:23.707Z,6.74
2019-03-10T13:29:55.862Z,6.69
2019-03-10T13:32:29.660Z,6.70
2019-03-10T13:35:00.439Z,6.47
2019-03-10T13:37:31.124Z,6.33
2019-03-10T13:40:01.812Z,6.23
2019-03-10T13:42:35.452Z,6.37
2019-03-10T13:45:06.631Z,6.34
2019-03-10T13:47:38.797Z,6.30
2019-03-10T13:50:13.993Z,6.33
2019-03-10T13:52:45.873Z,6.26
2019-03-10T13:55:18.813Z,6.16
2019-03-10T13:57:49.468Z,6.10
2019-03-10T14:00:23.783Z,6.18
2019-03-10T14:02:56.907Z,6.13
2019-03-10T14:05:32.345Z,6.21
2019-03-10T14:08:07.146Z,6.27
2019-03-10T14:10:46.063Z,6.28
2019-03-10T14:13:18.553Z,6.33
2019-03-10T14:15:52.335Z,6.37
2019-03-10T14:18:27.038Z,6.38
2019-03-10T14:20:58.754Z,6.48
2019-03-10T14:23:29.449Z,6.34
2019-03-10T14:26:00.043Z,6.33
2019-03-10T14:28:35.045Z,6.25
2019-03-10T14:31:05.813Z,6.19
2019-03-10T14:33:36.571Z,6.19
2019-03-10T14:36:07.567Z,6.14
2019-03-10T14:38:39.439Z,6.18
2019-03-10T14:41:10.160Z,6.23
2019-03-10T14:43:44.042Z,6.18
2019-03-10T14:46:14.678Z,6.25
2019-03-10T14:48:45.520Z,6.30
2019-03-10T14:51:22.114Z,6.39
2019-03-10T14:53:53.623Z,6.27
2019-03-10T14:56:25.798Z,6.26
2019-03-10T14:58:56.314Z,6.26
2019-03-10T15:01:30.597Z,6.24
2019-03-10T15:04:01.264Z,6.31
2019-03-10T15:06:38.438Z,6.33
2019-03-10T15:09:09.974Z,6.39
2019-03-10T15:11:41.028Z,6.34
2019-03-10T15:14:13.757Z,6.34
2019-03-10T15:16:44.430Z,6.27
2019-03-10T15:19:15.278Z,6.25
2019-03-10T15:21:50.100Z,6.22
2019-03-10T15:24:23.098Z,6.18
2019-03-10T15:26:55.057Z,6.18
2019-03-10T15:29:25.648Z,6.19
2019-03-10T15:31:57.379Z,6.15
2019-03-10T15:34:34.918Z,6.19
2019-03-10T15:37:07.944Z,6.20
2019-03-10T15:39:52.914Z,6.17
2019-03-10T15:42:23.592Z,6.02
2019-03-10T15:44:58.082Z,5.98
2019-03-10T15:47:34.566Z,5.96
2019-03-10T15:50:07.651Z,5.99
2019-03-10T15:52:38.517Z,5.96
2019-03-10T15:55:11.835Z,5.92
2019-03-10T15:57:50.487Z,5.90
2019-03-10T16:00:23.401Z,5.89
2019-03-10T16:02:56.523Z,5.87
2019-03-10T16:05:29.122Z,5.86
2019-03-10T16:07:59.877Z,5.87
2019-03-10T16:10:35.589Z,5.90
2019-03-10T16:13:06.382Z,5.84
2019-03-10T16:15:39.178Z,5.80
2019-03-10T16:18:13.480Z,5.76
2019-03-10T16:20:57.192Z,5.75
2019-03-10T16:23:32.903Z,5.75
2019-03-10T16:26:09.434Z,5.77
2019-03-10T16:28:40.175Z,5.75
2019-03-10T16:31:10.858Z,5.74
2019-03-10T16:33:46.143Z,5.69
2019-03-10T16:36:20.133Z,5.69
2019-03-10T16:38:58.666Z,5.69
2019-03-10T16:41:31.445Z,5.67
2019-03-10T16:44:02.087Z,5.66
2019-03-10T16:46:33.873Z,5.66
2019-03-10T16:49:05.778Z,5.62
2019-03-10T16:51:37.709Z,5.63
2019-03-10T16:54:16.818Z,5.63
2019-03-10T16:56:47.737Z,5.63
2019-03-10T16:59:25.743Z,5.65
2019-03-10T17:01:56.363Z,5.65
2019-03-10T17:04:31.443Z,5.66
2019-03-10T17:07:08.483Z,5.67
2019-03-10T17:09:44.378Z,5.67
2019-03-10T17:12:17.123Z,5.64
2019-03-10T17:14:49.800Z,5.67
2019-03-10T17:17:23.952Z,5.73
2019-03-10T17:19:54.654Z,5.66
2019-03-10T17:22:27.834Z,5.67
2019-03-10T17:25:02.441Z,5.67
2019-03-10T17:27:38.512Z,5.70
2019-03-10T17:30:15.504Z,5.69
2019-03-10T17:32:48.506Z,5.73
2019-03-10T17:35:19.612Z,5.71
2019-03-10T17:37:56.115Z,5.75
2019-03-10T17:40:29.834Z,5.78
2019-03-10T17:43:00.558Z,5.86
2019-03-10T17:45:32.468Z,5.82
2019-03-10T17:48:04.356Z,5.85
2019-03-10T17:50:35.104Z,5.81
2019-03-10T17:53:21.706Z,5.80
2019-03-10T17:55:57.913Z,5.83
2019-03-10T17:58:33.758Z,5.85
2019-03-10T18:01:07.443Z,5.88
2019-03-10T18:03:39.384Z,5.91
2019-03-10T18:06:14.646Z,5.99
2019-03-10T18:08:45.588Z,5.98
2019-03-10T18:11:23.049Z,6.02
2019-03-10T18:13:55.629Z,5.95
2019-03-10T18:16:27.694Z,5.91
2019-03-10T18:19:00.558Z,5.99
2019-03-10T18:21:35.977Z,6.02
2019-03-10T18:24:10.390Z,6.00
2019-03-10T18:26:42.093Z,5.88
2019-03-10T18:29:16.213Z,5.80
2019-03-10T18:31:47.138Z,5.80
2019-03-10T18:34:18.859Z,5.83
2019-03-10T18:36:54.940Z,5.83
2019-03-10T18:39:29.393Z,5.78
2019-03-10T18:42:06.522Z,5.72
2019-03-10T18:44:39.661Z,5.73
2019-03-10T18:47:12.082Z,5.77
2019-03-10T18:49:45.018Z,5.85
2019-03-10T18:52:23.528Z,5.95
2019-03-10T18:54:55.203Z,6.02
2019-03-10T18:57:30.601Z,6.09
2019-03-10T19:00:04.488Z,6.13
2019-03-10T19:02:40.781Z,6.19
2019-03-10T19:05:16.599Z,6.23
2019-03-10T19:07:50.455Z,6.26
2019-03-10T19:10:22.472Z,6.27
2019-03-10T19:12:59.599Z,6.30
2019-03-10T19:15:33.608Z,6.33
2019-03-10T19:18:08.078Z,6.34
2019-03-10T19:20:42.588Z,6.38
2019-03-10T19:23:16.503Z,6.41
2019-03-10T19:25:52.472Z,6.45
2019-03-10T19:28:23.123Z,6.46
2019-03-10T19:30:55.004Z,6.52
2019-03-10T19:33:26.759Z,6.62
2019-03-10T19:36:01.024Z,6.71
2019-03-10T19:38:32.704Z,6.77
2019-03-10T19:41:07.447Z,6.82
2019-03-10T19:43:41.870Z,6.89
2019-03-10T19:46:18.380Z,6.97
2019-03-10T19:48:55.925Z,6.98
2019-03-10T19:51:29.108Z,7.01
2019-03-10T19:54:03.410Z,7.09
2019-03-10T19:56:37.564Z,7.09
2019-03-10T19:59:09.709Z,7.13
2019-03-10T20:01:46.868Z,7.18
2019-03-10T20:04:27.132Z,7.23
2019-03-10T20:07:07.286Z,7.38
2019-03-10T20:09:48.282Z,7.41
2019-03-10T20:12:29.947Z,7.47
2019-03-10T20:15:05.481Z,7.47
2019-03-10T20:17:53.484Z,7.47
2019-03-10T20:20:41.249Z,7.53
2019-03-10T20:23:17.828Z,7.52
2019-03-10T20:25:52.184Z,7.54
2019-03-10T20:28:25.875Z,7.47
2019-03-10T20:31:00.277Z,7.49
2019-03-10T20:33:34.079Z,7.44
2019-03-10T20:36:07.486Z,7.37
2019-03-10T20:38:43.989Z,7.39
2019-03-10T20:41:16.114Z,7.36
2019-03-10T20:44:05.960Z,7.37
2019-03-10T20:46:39.415Z,7.42
2019-03-10T20:49:14.533Z,7.47
2019-03-10T20:52:05.637Z,7.60
2019-03-10T20:54:38.166Z,7.67
2019-03-10T20:57:13.354Z,7.65
2019-03-10T20:59:47.052Z,7.62
2019-03-10T21:02:23.876Z,7.64
2019-03-10T21:04:56.613Z,7.66
2019-03-10T21:07:27.363Z,7.66
2019-03-10T21:10:01.459Z,7.72
2019-03-10T21:12:40.623Z,7.86
2019-03-10T21:15:16.034Z,7.89
2019-03-10T21:17:51.351Z,8.06
2019-03-10T21:20:26.063Z,8.18
2019-03-10T21:22:58.141Z,8.20
2019-03-10T21:25:31.018Z,8.34
2019-03-10T21:28:05.107Z,8.31
2019-03-10T21:30:35.709Z,8.45
2019-03-10T21:33:06.372Z,8.39
2019-03-10T21:35:39.677Z,8.48
2019-03-10T21:38:10.222Z,8.46
2019-03-10T21:40:43.193Z,8.59
2019-03-10T21:43:13.769Z,8.56
2019-03-10T21:45:45.502Z,8.67
2019-03-10T21:48:16.712Z,8.61
2019-03-10T21:50:47.403Z,8.59
2019-03-10T21:53:18.044Z,8.62
2019-03-10T21:55:48.773Z,8.71
2019-03-10T21:58:19.273Z,8.61
2019-03-10T22:00:49.832Z,8.57
2019-03-10T22:03:20.548Z,8.61
2019-03-10T22:05:51.044Z,8.51
2019-03-10T22:08:21.548Z,8.54
2019-03-10T22:10:52.183Z,8.50
2019-03-10T22:13:24.231Z,8.46
2019-03-10T22:15:54.669Z,8.42
2019-03-10T22:18:25.789Z,8.33
2019-03-10T22:20:56.391Z,8.33
2019-03-10T22:23:26.923Z,8.31
2019-03-10T22:25:57.280Z,8.35
2019-03-10T22:28:27.681Z,8.40
2019-03-10T22:30:58.210Z,8.43
2019-03-10T22:33:29.095Z,8.34
2019-03-10T22:35:59.575Z,8.17
2019-03-10T22:38:30.230Z,8.12
2019-03-10T22:41:01.274Z,8.02
2019-03-10T22:43:32.340Z,8.01
2019-03-10T22:46:03.112Z,8.04
2019-03-10T22:48:33.789Z,8.02
2019-03-10T22:51:04.412Z,8.06
2019-03-10T22:53:35.586Z,7.99
2019-03-10T22:56:06.198Z,8.08
2019-03-10T22:58:36.852Z,8.09
2019-03-10T23:01:07.743Z,8.07
2019-03-10T23:03:38.717Z,8.10
2019-03-10T23:06:09.450Z,7.99
2019-03-10T23:08:39.973Z,7.94
2019-03-10T23:11:10.661Z,7.87
2019-03-10T23:13:41.267Z,7.82
2019-03-10T23:16:11.879Z,7.65
2019-03-10T23:18:42.490Z,7.61
2019-03-10T23:21:13.013Z,7.49
2019-03-10T23:23:43.453Z,7.35
2019-03-10T23:26:14.173Z,7.05
2019-03-10T23:28:44.609Z,6.70
2019-03-10T23:31:15.119Z,6.32
2019-03-10T23:33:45.637Z,5.95
2019-03-10T23:36:16.193Z,4.85
2019-03-10T23:38:46.640Z,3.99
2019-03-10T23:41:17.084Z,2.71
2019-03-10T23:43:47.649Z,2.13
2019-03-10T23:46:18.311Z,1.91
2019-03-10T23:48:48.684Z,1.73
2019-03-10T23:51:19.128Z,1.67
2019-03-10T23:53:49.747Z,1.65
2019-03-10T23:56:20.264Z,1.57
2019-03-10T23:58:50.707Z,1.40
